The Meadows, Iowa
Current Conditions -  °F | °C
As of 3:35 AM on Sunday 23 Nov 2014 (Local Time) from KPRO Reporting Station
Overcast Overcast  
Wind Chill: 53°   Ceiling: 1100
Heat Index: 53°   Visibility: 10mi
Dew Point: 51°   Wind: 13mph
Humidity: 93%   Direction: 190°S
Pressure: 29.54"   Gusts: NA
Location:  41.8164°N, 93.8864°W
Report Text: KPRO 230935Z AUTO 19011KT 10SM BKN011 OVC021 12/10 A2954 RMK AO2 T01150104
Loading
Personal Weather Stations






























Interactive Weather Map New forecast layout! Learn more

10-Day Weather Forecast

Advertisements
Track Severe Weather on mobile